Time;durP1;ratioP1;P1;durP2;ratioP2;P2;SDS_P1;SDS_P2;PMS_P1;PMS_P2;Temp;Humidity;BMP_temperature;BMP_pressure;BME280_temperature;BME280_humidity;BME280_pressure;Samples;Min_cycle;Max_cycle;Signal;HPM_P1;HPM_P2
2021/04/07 00:01:32;;;;;;;4.57;2.42;;;7.00;84.50;;;;;;5049591;28;20017;-85
2021/04/07 00:03:57;;;;;;;6.35;3.03;;;7.00;84.30;;;;;;5015541;28;20033;-84
2021/04/07 00:06:23;;;;;;;3.35;2.20;;;6.90;84.40;;;;;;5048284;28;20037;-82
2021/04/07 00:08:50;;;;;;;7.75;2.35;;;6.80;84.70;;;;;;5047691;28;20167;-83
2021/04/07 00:11:17;;;;;;;6.55;3.13;;;6.80;84.70;;;;;;5030791;28;20120;-84
2021/04/07 00:13:46;;;;;;;3.70;2.47;;;6.90;84.80;;;;;;5049841;28;20055;-84
2021/04/07 00:16:12;;;;;;;4.72;2.92;;;6.90;84.80;;;;;;5048538;28;20033;-86
2021/04/07 00:18:38;;;;;;;4.53;2.30;;;6.90;84.40;;;;;;5049721;28;20028;-83
2021/04/07 00:21:04;;;;;;;3.47;2.25;;;6.90;84.40;;;;;;5047846;28;20032;-84
2021/04/07 00:23:30;;;;;;;4.75;2.38;;;6.90;84.60;;;;;;5048419;28;20452;-83
2021/04/07 00:25:56;;;;;;;5.57;2.08;;;6.90;84.90;;;;;;5047816;28;20112;-85
2021/04/07 00:28:21;;;;;;;5.90;2.42;;;6.90;85.00;;;;;;5047478;28;20036;-83
2021/04/07 00:30:48;;;;;;;7.32;2.50;;;7.00;85.00;;;;;;5030623;28;20032;-84
2021/04/07 00:33:16;;;;;;;5.30;2.45;;;7.00;84.90;;;;;;5048077;28;22000;-82
2021/04/07 00:35:41;;;;;;;7.07;3.13;;;6.90;84.70;;;;;;5046978;28;20021;-83
2021/04/07 00:38:07;;;;;;;8.70;3.13;;;6.90;84.90;;;;;;5046956;28;20086;-84
2021/04/07 00:40:34;;;;;;;6.57;3.25;;;6.90;85.20;;;;;;5014257;28;20102;-84
2021/04/07 00:43:01;;;;;;;7.95;3.30;;;6.90;85.30;;;;;;5046952;28;20480;-83
2021/04/07 00:45:28;;;;;;;6.70;3.25;;;6.90;85.30;;;;;;5048425;28;20025;-84
2021/04/07 00:47:55;;;;;;;5.68;3.08;;;6.80;85.20;;;;;;5046902;28;20052;-83
2021/04/07 00:50:23;;;;;;;5.13;2.40;;;6.80;85.10;;;;;;5046496;28;20017;-84
2021/04/07 00:52:50;;;;;;;4.40;2.40;;;6.80;85.00;;;;;;5047899;28;20031;-82
2021/04/07 00:55:18;;;;;;;4.35;2.20;;;6.70;85.00;;;;;;5046603;28;20033;-83
2021/04/07 00:57:45;;;;;;;6.32;2.80;;;6.60;85.30;;;;;;5046394;28;20022;-84
2021/04/07 01:00:12;;;;;;;8.60;3.15;;;6.60;84.90;;;;;;5030114;28;20132;-84
2021/04/07 01:02:38;;;;;;;7.10;2.65;;;6.50;85.00;;;;;;5046572;28;20267;-83
2021/04/07 01:05:05;;;;;;;8.40;2.47;;;6.40;84.90;;;;;;5029888;28;20541;-85
2021/04/07 01:07:31;;;;;;;6.63;3.60;;;6.30;84.90;;;;;;5047696;28;20029;-82
2021/04/07 01:09:57;;;;;;;5.80;3.15;;;6.20;85.10;;;;;;5029981;28;20029;-82
2021/04/07 01:12:23;;;;;;;7.28;2.95;;;6.00;85.10;;;;;;5029966;28;20487;-85
2021/04/07 01:14:49;;;;;;;5.93;2.92;;;5.90;85.40;;;;;;5029735;28;20029;-83
2021/04/07 01:17:15;;;;;;;7.88;3.60;;;5.80;85.60;;;;;;5046556;28;20025;-82
2021/04/07 01:19:42;;;;;;;6.72;3.35;;;5.70;86.00;;;;;;5046369;28;20024;-83
2021/04/07 01:22:08;;;;;;;7.82;3.15;;;5.70;86.40;;;;;;5046311;28;20021;-81
2021/04/07 01:24:36;;;;;;;4.93;2.85;;;5.60;86.40;;;;;;5046339;28;20054;-82
2021/04/07 01:27:02;;;;;;;5.80;2.90;;;5.60;86.60;;;;;;5047313;28;20496;-83
2021/04/07 01:29:28;;;;;;;7.10;2.58;;;5.50;86.60;;;;;;5049804;28;20127;-81
2021/04/07 01:31:55;;;;;;;5.05;2.78;;;5.40;86.60;;;;;;5049593;28;20503;-84
2021/04/07 01:34:29;;;;;;;6.35;3.03;;;5.40;86.70;;;;;;5049870;28;20480;-84
2021/04/07 01:36:56;;;;;;;7.88;3.30;;;5.30;87.00;;;;;;5033455;28;20052;-83
2021/04/07 01:39:24;;;;;;;6.72;3.05;;;5.20;86.70;;;;;;5049637;28;20025;-83
2021/04/07 01:41:50;;;;;;;8.10;3.17;;;5.20;86.90;;;;;;5033584;28;20376;-83
2021/04/07 01:44:18;;;;;;;5.40;2.50;;;5.10;87.10;;;;;;5050920;28;20124;-83
2021/04/07 01:46:44;;;;;;;7.72;2.90;;;5.10;87.30;;;;;;5049506;28;20107;-83
2021/04/07 01:49:12;;;;;;;6.85;2.38;;;5.00;87.50;;;;;;5032853;28;20532;-83
2021/04/07 01:51:38;;;;;;;6.30;2.72;;;5.00;87.60;;;;;;5050574;28;20037;-83
2021/04/07 01:54:09;;;;;;;4.00;2.50;;;5.00;87.60;;;;;;5049444;28;20034;-82
2021/04/07 01:56:53;;;;;;;3.92;2.40;;;4.90;88.30;;;;;;5050791;28;20074;-84
2021/04/07 01:59:21;;;;;;;4.65;2.10;;;4.90;88.10;;;;;;5049181;28;20033;-81
2021/04/07 02:01:47;;;;;;;6.88;2.47;;;4.90;87.90;;;;;;5049183;28;20111;-82
2021/04/07 02:04:16;;;;;;;4.10;2.08;;;4.90;88.00;;;;;;5049226;28;20434;-83
2021/04/07 02:06:46;;;;;;;3.95;2.28;;;4.90;88.10;;;;;;5032493;28;20025;-83
2021/04/07 02:09:12;;;;;;;7.43;2.40;;;4.90;87.90;;;;;;5050323;28;20029;-84
2021/04/07 02:11:48;;;;;;;4.63;2.25;;;4.90;87.80;;;;;;5048972;28;20029;-82
2021/04/07 02:14:19;;;;;;;10.40;2.60;;;4.90;88.10;;;;;;5050011;28;20549;-82
2021/04/07 02:16:56;;;;;;;5.20;2.15;;;4.80;88.10;;;;;;5032366;28;20468;-83
2021/04/07 02:19:23;;;;;;;4.78;2.30;;;4.80;88.20;;;;;;5050181;28;20035;-85
2021/04/07 02:22:07;;;;;;;4.15;2.15;;;4.80;88.10;;;;;;5048705;28;20021;-84
2021/04/07 02:24:34;;;;;;;4.10;2.00;;;4.80;88.70;;;;;;5050062;28;20063;-82
2021/04/07 02:27:13;;;;;;;5.63;2.10;;;4.90;88.60;;;;;;5050198;28;20025;-84
2021/04/07 02:29:41;;;;;;;5.50;2.33;;;5.00;89.10;;;;;;5049922;28;20025;-82
2021/04/07 02:32:07;;;;;;;7.90;2.20;;;5.10;88.80;;;;;;5048533;28;20056;-83
2021/04/07 02:34:33;;;;;;;4.63;2.33;;;5.10;88.40;;;;;;5048441;28;20029;-83
2021/04/07 02:37:00;;;;;;;5.07;2.53;;;5.10;88.30;;;;;;5049927;28;20025;-83
2021/04/07 02:39:26;;;;;;;6.45;2.55;;;5.00;88.20;;;;;;5048395;28;20033;-82
2021/04/07 02:41:52;;;;;;;4.85;2.42;;;5.00;88.50;;;;;;5031983;28;20028;-83
2021/04/07 02:44:18;;;;;;;5.82;2.30;;;4.90;88.60;;;;;;5032082;28;20040;-83
2021/04/07 02:46:43;;;;;;;4.63;2.20;;;5.00;88.90;;;;;;5048468;28;20025;-83
2021/04/07 02:49:09;;;;;;;6.10;2.10;;;5.00;89.10;;;;;;5031930;28;20037;-83
2021/04/07 02:51:35;;;;;;;4.03;2.40;;;5.00;89.20;;;;;;5015291;28;20032;-84
2021/04/07 02:54:02;;;;;;;5.55;2.40;;;5.10;89.20;;;;;;5031613;28;20056;-82
2021/04/07 02:56:31;;;;;;;4.72;2.47;;;5.10;89.20;;;;;;5031835;28;20170;-84
2021/04/07 02:58:58;;;;;;;5.60;2.10;;;5.10;89.20;;;;;;5048088;28;20409;-82
2021/04/07 03:01:24;;;;;;;5.57;1.80;;;5.20;89.00;;;;;;5049373;28;20040;-82
2021/04/07 03:03:49;;;;;;;3.20;1.80;;;5.20;89.10;;;;;;5049279;28;20025;-82
2021/04/07 03:06:15;;;;;;;4.68;1.85;;;5.20;89.10;;;;;;5031593;28;20483;-84
2021/04/07 03:08:41;;;;;;;6.75;2.42;;;5.30;89.10;;;;;;5047914;28;20029;-82
2021/04/07 03:11:07;;;;;;;6.10;2.30;;;5.30;89.10;;;;;;5031283;28;20032;-83
2021/04/07 03:13:33;;;;;;;7.07;2.40;;;5.40;89.00;;;;;;5031260;28;20098;-83
2021/04/07 03:15:59;;;;;;;4.55;2.42;;;5.40;88.80;;;;;;5047986;28;20147;-81
2021/04/07 03:18:24;;;;;;;6.30;2.05;;;5.40;88.70;;;;;;5047734;28;20033;-82
2021/04/07 03:20:50;;;;;;;6.15;2.20;;;5.40;88.70;;;;;;5014887;28;20411;-82
2021/04/07 03:23:16;;;;;;;3.38;1.88;;;5.40;88.50;;;;;;5031125;28;20029;-82
2021/04/07 03:25:42;;;;;;;6.10;3.13;;;5.40;88.50;;;;;;5049133;28;20074;-83
2021/04/07 03:28:08;;;;;;;3.85;2.15;;;5.30;88.50;;;;;;5048434;28;20486;-83
2021/04/07 03:30:49;;;;;;;5.50;2.15;;;5.30;88.60;;;;;;5049201;28;20025;-82
2021/04/07 03:33:20;;;;;;;5.10;2.67;;;5.30;88.80;;;;;;5048825;28;20041;-83
2021/04/07 03:35:47;;;;;;;3.58;2.10;;;5.30;88.80;;;;;;5047545;28;20467;-84
2021/04/07 03:38:13;;;;;;;5.47;2.38;;;5.40;89.00;;;;;;5048638;28;20457;-84
2021/04/07 03:40:40;;;;;;;4.05;2.15;;;5.40;89.00;;;;;;5014838;28;20471;-85
2021/04/07 03:43:07;;;;;;;5.05;2.42;;;5.40;88.80;;;;;;5048759;28;20025;-84
2021/04/07 03:45:33;;;;;;;2.67;1.83;;;5.40;88.80;;;;;;5031020;28;20037;-84
2021/04/07 03:47:59;;;;;;;5.43;3.00;;;5.40;88.80;;;;;;5046755;28;20043;-78
2021/04/07 03:50:25;;;;;;;4.47;2.03;;;5.40;88.80;;;;;;5047584;28;20461;-75
2021/04/07 03:52:50;;;;;;;5.00;2.45;;;5.40;88.70;;;;;;5048006;28;20017;-76
2021/04/07 03:55:16;;;;;;;7.47;2.63;;;5.40;88.60;;;;;;5046652;28;20047;-77
2021/04/07 03:57:42;;;;;;;5.00;2.08;;;5.40;89.10;;;;;;5046479;28;20053;-77
2021/04/07 04:00:08;;;;;;;5.75;2.65;;;5.40;88.70;;;;;;5047781;28;20473;-77
2021/04/07 04:02:34;;;;;;;4.40;1.80;;;5.40;88.80;;;;;;5048118;28;20086;-83
2021/04/07 04:04:59;;;;;;;5.93;2.42;;;5.40;88.90;;;;;;5031141;28;20033;-83
2021/04/07 04:07:25;;;;;;;8.10;2.45;;;5.40;89.00;;;;;;5030305;28;20396;-85
2021/04/07 04:09:51;;;;;;;4.50;2.03;;;5.40;89.20;;;;;;5030933;28;20466;-84
2021/04/07 04:12:16;;;;;;;4.15;2.20;;;5.40;89.30;;;;;;5030664;28;20047;-83
2021/04/07 04:14:42;;;;;;;4.53;2.20;;;5.40;89.10;;;;;;5047199;28;20037;-84
2021/04/07 04:17:08;;;;;;;6.20;2.58;;;5.30;89.10;;;;;;5030279;28;20476;-83
2021/04/07 04:19:33;;;;;;;3.60;2.20;;;5.30;89.00;;;;;;5047086;28;20021;-84
2021/04/07 04:22:01;;;;;;;5.72;2.40;;;5.30;89.00;;;;;;5030097;28;20025;-82
2021/04/07 04:24:27;;;;;;;6.60;2.10;;;5.30;89.20;;;;;;5046825;28;20529;-82
2021/04/07 04:26:53;;;;;;;9.30;2.92;;;5.40;89.40;;;;;;5013651;28;20037;-82
2021/04/07 04:29:19;;;;;;;8.23;3.00;;;5.40;89.50;;;;;;5046600;28;20395;-83
2021/04/07 04:31:44;;;;;;;5.93;2.45;;;5.40;89.60;;;;;;5030074;28;20059;-84
2021/04/07 04:34:10;;;;;;;4.60;2.85;;;5.50;89.60;;;;;;5046747;28;20433;-83
2021/04/07 04:36:36;;;;;;;6.07;2.55;;;5.50;89.60;;;;;;5046684;28;20029;-82
2021/04/07 04:39:02;;;;;;;7.72;2.20;;;5.50;89.40;;;;;;5029803;28;20029;-83
2021/04/07 04:41:27;;;;;;;4.90;2.30;;;5.60;89.40;;;;;;5046703;28;20029;-83
2021/04/07 04:43:53;;;;;;;6.55;2.30;;;5.60;89.50;;;;;;5046557;28;20044;-84
2021/04/07 04:46:18;;;;;;;4.78;2.63;;;5.60;89.50;;;;;;5030529;28;20025;-83
2021/04/07 04:48:44;;;;;;;6.57;2.47;;;5.60;89.40;;;;;;5013868;28;20040;-85
2021/04/07 04:51:10;;;;;;;5.88;2.05;;;5.60;89.20;;;;;;5047590;28;20051;-83
2021/04/07 04:53:35;;;;;;;3.63;2.28;;;5.60;89.00;;;;;;5047034;28;20029;-82
2021/04/07 04:56:01;;;;;;;7.75;2.72;;;5.60;89.00;;;;;;5013752;28;20029;-83
2021/04/07 04:58:27;;;;;;;4.97;2.33;;;5.60;89.20;;;;;;5029675;28;20022;-85
2021/04/07 05:00:52;;;;;;;4.18;2.38;;;5.60;89.20;;;;;;5030429;28;20033;-83
2021/04/07 05:03:18;;;;;;;5.05;2.63;;;5.70;89.10;;;;;;5049952;28;20033;-82
2021/04/07 05:05:44;;;;;;;3.45;2.33;;;5.60;88.90;;;;;;5050663;28;20032;-85
2021/04/07 05:08:09;;;;;;;5.78;2.65;;;5.60;88.80;;;;;;5033733;28;20033;-82
2021/04/07 05:10:35;;;;;;;4.57;2.08;;;5.60;88.90;;;;;;5034165;28;20025;-86
2021/04/07 05:13:00;;;;;;;4.07;2.25;;;5.60;89.10;;;;;;5051726;28;20029;-82
2021/04/07 05:15:26;;;;;;;6.55;2.25;;;5.60;89.20;;;;;;5017163;28;20048;-84
2021/04/07 05:17:52;;;;;;;4.90;2.50;;;5.60;89.20;;;;;;5050224;28;20029;-85
2021/04/07 05:20:17;;;;;;;5.93;2.88;;;5.60;89.00;;;;;;5033973;28;20048;-85
2021/04/07 05:22:43;;;;;;;5.57;2.30;;;5.60;89.00;;;;;;5033730;28;20047;-83
2021/04/07 05:25:09;;;;;;;5.78;2.05;;;5.60;89.10;;;;;;5050924;28;20031;-84
2021/04/07 05:27:36;;;;;;;4.65;2.45;;;5.70;89.00;;;;;;5050882;28;20035;-82
2021/04/07 05:30:01;;;;;;;5.28;2.35;;;5.60;89.00;;;;;;5017910;28;20037;-86
2021/04/07 05:32:28;;;;;;;4.15;2.00;;;5.60;89.00;;;;;;5050345;28;20056;-84
2021/04/07 05:34:53;;;;;;;5.78;3.13;;;5.60;88.80;;;;;;5017316;28;20059;-86
2021/04/07 05:37:19;;;;;;;6.88;2.70;;;5.60;88.80;;;;;;5033651;28;20025;-75
2021/04/07 05:39:45;;;;;;;4.07;2.42;;;5.60;88.90;;;;;;5051602;28;20539;-84
2021/04/07 05:42:10;;;;;;;6.97;2.42;;;5.60;89.00;;;;;;5033775;28;20025;-83
2021/04/07 05:44:36;;;;;;;4.10;2.22;;;5.60;89.10;;;;;;5017205;28;20488;-85
2021/04/07 05:47:02;;;;;;;5.07;2.55;;;5.60;89.30;;;;;;5051479;28;20036;-83
2021/04/07 05:49:28;;;;;;;4.70;2.35;;;5.60;89.20;;;;;;5034301;28;20077;-84
2021/04/07 05:51:53;;;;;;;3.72;2.55;;;5.60;89.20;;;;;;5050869;28;20413;-84
2021/04/07 05:54:20;;;;;;;5.72;2.72;;;5.60;89.10;;;;;;5050359;28;20029;-84
2021/04/07 05:56:46;;;;;;;4.32;2.00;;;5.60;89.00;;;;;;5050369;28;20025;-84
2021/04/07 05:59:11;;;;;;;5.28;2.70;;;5.60;88.80;;;;;;5051270;28;20082;-86
2021/04/07 06:01:37;;;;;;;4.00;2.25;;;5.60;89.00;;;;;;5049498;28;20119;-83
2021/04/07 06:04:03;;;;;;;5.80;2.25;;;5.50;89.00;;;;;;5049450;28;20034;-83
2021/04/07 06:06:29;;;;;;;5.18;2.25;;;5.60;89.10;;;;;;5016204;28;20044;-84
2021/04/07 06:08:55;;;;;;;7.78;2.20;;;5.50;89.10;;;;;;5049087;28;20025;-82
2021/04/07 06:11:21;;;;;;;6.50;2.53;;;5.60;89.30;;;;;;5032601;28;20045;-83
2021/04/07 06:13:47;;;;;;;5.63;2.83;;;5.60;89.40;;;;;;5049030;28;20535;-84
2021/04/07 06:16:13;;;;;;;4.53;2.20;;;5.70;89.40;;;;;;5032860;28;20476;-84
2021/04/07 06:18:40;;;;;;;6.93;2.60;;;5.70;89.30;;;;;;5032769;28;20125;-85
2021/04/07 06:21:05;;;;;;;4.90;2.38;;;5.70;89.30;;;;;;5033303;28;20039;-84
2021/04/07 06:23:31;;;;;;;6.65;2.88;;;5.70;89.50;;;;;;5049403;28;20025;-84
2021/04/07 06:25:57;;;;;;;4.35;2.30;;;5.80;89.50;;;;;;5049691;28;20078;-85
2021/04/07 06:28:22;;;;;;;6.43;2.67;;;5.80;89.80;;;;;;5033135;28;20029;-86
2021/04/07 06:30:48;;;;;;;5.32;2.17;;;5.80;89.50;;;;;;5016135;28;20025;-83
2021/04/07 06:33:21;;;;;;;3.75;2.10;;;5.90;89.80;;;;;;5032809;28;20049;-83
2021/04/07 06:36:11;;;;;;;4.57;2.20;;;6.00;89.90;;;;;;5050075;28;20044;-82
2021/04/07 06:38:38;;;;;;;4.95;2.67;;;6.00;90.00;;;;;;5048674;28;20032;-86
2021/04/07 06:41:04;;;;;;;5.60;2.30;;;6.10;89.90;;;;;;5049029;28;20025;-82
2021/04/07 06:43:33;;;;;;;5.55;2.35;;;6.20;89.90;;;;;;5050353;28;20392;-82
2021/04/07 06:45:59;;;;;;;5.47;2.45;;;6.30;89.60;;;;;;5049556;28;20032;-84
2021/04/07 06:48:25;;;;;;;9.63;2.88;;;6.30;89.30;;;;;;5049493;28;20032;-84
2021/04/07 06:50:53;;;;;;;5.70;2.20;;;6.30;89.10;;;;;;5048530;28;20025;-85
2021/04/07 06:53:24;;;;;;;3.90;2.35;;;6.30;89.10;;;;;;5032089;28;20131;-85
2021/04/07 06:55:50;;;;;;;4.70;2.10;;;6.40;89.20;;;;;;5050123;28;20017;-87
2021/04/07 06:58:16;;;;;;;7.50;2.10;;;6.50;89.20;;;;;;5049042;28;20029;-80
2021/04/07 07:00:42;;;;;;;9.02;2.80;;;6.50;89.30;;;;;;5049943;28;20163;-82
2021/04/07 07:03:14;;;;;;;4.43;2.25;;;6.60;89.40;;;;;;5032331;28;20053;-83
2021/04/07 07:05:47;;;;;;;4.57;2.15;;;6.60;89.30;;;;;;5049659;28;20028;-84
2021/04/07 07:08:18;;;;;;;5.35;2.00;;;6.70;89.10;;;;;;5048787;28;20033;-84
2021/04/07 07:10:47;;;;;;;4.00;2.00;;;6.70;88.80;;;;;;5015637;28;20025;-85
2021/04/07 07:13:18;;;;;;;5.32;2.90;;;6.70;88.60;;;;;;5049003;28;20029;-84
2021/04/07 07:15:45;;;;;;;4.63;2.00;;;6.80;88.60;;;;;;5049247;28;20025;-84
2021/04/07 07:18:21;;;;;;;4.70;2.22;;;6.80;89.00;;;;;;5049148;28;20315;-83
2021/04/07 07:20:47;;;;;;;3.42;1.77;;;6.90;88.70;;;;;;5048480;28;20043;-84
2021/04/07 07:23:43;;;;;;;5.55;2.08;;;7.00;88.50;;;;;;5032416;28;20033;-84
2021/04/07 07:26:10;;;;;;;4.13;1.60;;;7.00;88.40;;;;;;5050140;28;20041;-85
2021/04/07 07:28:49;;;;;;;4.88;2.17;;;7.10;88.30;;;;;;5048911;28;20048;-85
2021/04/07 07:31:24;;;;;;;5.80;1.80;;;7.10;88.20;;;;;;5048802;28;20391;-86
2021/04/07 07:33:51;;;;;;;4.13;1.70;;;7.10;87.90;;;;;;5048028;28;20021;-84
2021/04/07 07:36:18;;;;;;;5.57;1.65;;;7.20;87.40;;;;;;5049522;28;20436;-84
2021/04/07 07:38:50;;;;;;;5.63;1.83;;;7.20;87.40;;;;;;5049429;28;20025;-83
2021/04/07 07:41:19;;;;;;;8.00;2.53;;;7.20;87.20;;;;;;5049240;28;20100;-83
2021/04/07 07:43:45;;;;;;;4.03;2.20;;;7.20;87.30;;;;;;5049030;28;20107;-82
2021/04/07 07:46:18;;;;;;;5.43;2.35;;;7.20;87.20;;;;;;5014425;28;20116;-84
2021/04/07 07:48:44;;;;;;;5.00;2.35;;;7.30;87.20;;;;;;5048328;28;20029;-86
2021/04/07 07:51:22;;;;;;;6.32;1.90;;;7.30;87.10;;;;;;5014505;28;20140;-80
2021/04/07 07:53:49;;;;;;;6.88;2.13;;;7.30;87.00;;;;;;5047840;28;20510;-85
2021/04/07 07:56:17;;;;;;;5.80;2.63;;;7.40;86.90;;;;;;5048332;28;20033;-85
2021/04/07 07:58:48;;;;;;;7.25;2.63;;;7.50;87.00;;;;;;5047410;28;20071;-82
2021/04/07 08:01:16;;;;;;;4.45;2.85;;;7.60;87.20;;;;;;5048915;28;20052;-79
2021/04/07 08:03:46;;;;;;;4.85;2.03;;;7.80;87.20;;;;;;5031734;28;20522;-83
2021/04/07 08:06:13;;;;;;;6.00;1.85;;;7.90;86.70;;;;;;5047644;28;20476;-85
2021/04/07 08:08:39;;;;;;;3.70;1.60;;;8.00;87.00;;;;;;5031389;28;20083;-86
2021/04/07 08:11:07;;;;;;;4.03;1.83;;;8.10;86.20;;;;;;5030720;28;20032;-83
2021/04/07 08:13:36;;;;;;;3.42;1.30;;;8.20;86.00;;;;;;5031699;28;20037;-83
2021/04/07 08:16:03;;;;;;;3.30;1.38;;;8.30;85.60;;;;;;5049212;28;20016;-84
2021/04/07 08:18:30;;;;;;;2.88;1.40;;;8.40;85.40;;;;;;5048009;28;20029;-85
2021/04/07 08:20:56;;;;;;;5.05;1.77;;;8.40;85.30;;;;;;5014899;28;20044;-86
2021/04/07 08:23:23;;;;;;;4.00;1.40;;;8.50;85.60;;;;;;5047505;28;20117;-88
2021/04/07 08:25:54;;;;;;;6.00;1.73;;;8.60;84.90;;;;;;5047681;28;20032;-83
2021/04/07 08:28:24;;;;;;;5.88;1.60;;;8.70;84.90;;;;;;5048066;28;20026;-83
2021/04/07 08:30:50;;;;;;;;;;;8.80;84.50;;;;;;5030932;28;20036;-84
2021/04/07 08:33:19;;;;;;;3.65;1.73;;;8.80;84.10;;;;;;5030485;28;19954;-87
2021/04/07 08:35:45;;;;;;;;;;;8.90;83.30;;;;;;5048958;28;20550;-84
2021/04/07 08:38:11;;;;;;;6.35;1.70;;;8.90;83.30;;;;;;5054197;28;19905;-85
2021/04/07 08:40:42;;;;;;;4.07;1.75;;;8.90;83.00;;;;;;5053923;28;20531;-87
2021/04/07 08:43:11;;;;;;;5.18;1.50;;;8.90;83.10;;;;;;5053692;28;20086;-84
2021/04/07 08:45:45;;;;;;;2.42;1.40;;;9.00;83.10;;;;;;5054011;28;20033;-84
2021/04/07 08:48:22;;;;;;;3.75;1.42;;;9.10;83.20;;;;;;5052509;28;20442;-84
2021/04/07 08:51:03;;;;;;;5.22;1.80;;;9.10;82.80;;;;;;5052531;28;20024;-84
2021/04/07 08:53:34;;;;;;;5.75;1.90;;;9.20;82.70;;;;;;5039332;28;20044;-85
2021/04/07 08:56:06;;;;;;;8.10;1.52;;;9.40;82.70;;;;;;5054978;28;20029;-84
2021/04/07 08:58:32;;;;;;;5.93;1.42;;;9.40;82.40;;;;;;5055279;28;20163;-82
2021/04/07 09:00:59;;;;;;;6.97;1.05;;;9.50;81.70;;;;;;5037478;28;20025;-84
2021/04/07 09:03:26;;;;;;;7.28;1.60;;;9.50;81.00;;;;;;5055242;28;20043;-84
2021/04/07 09:05:54;;;;;;;6.13;1.75;;;9.60;81.10;;;;;;5053424;28;20033;-84
2021/04/07 09:08:25;;;;;;;5.93;1.38;;;9.70;81.20;;;;;;5054642;28;20380;-86
2021/04/07 09:10:56;;;;;;;7.07;2.47;;;9.80;80.70;;;;;;5053641;28;20035;-85
2021/04/07 09:13:35;;;;;;;3.63;1.35;;;9.90;80.30;;;;;;5053376;28;20116;-82
2021/04/07 09:16:07;;;;;;;5.38;1.80;;;10.00;80.00;;;;;;5037559;28;20542;-87
2021/04/07 09:18:33;;;;;;;4.97;1.55;;;10.10;80.10;;;;;;5053082;28;20033;-83
2021/04/07 09:21:00;;;;;;;5.07;1.80;;;10.20;79.80;;;;;;5053059;28;20028;-85
2021/04/07 09:23:34;;;;;;;3.58;1.77;;;10.30;79.70;;;;;;5036792;28;20040;-86
2021/04/07 09:26:14;;;;;;;4.28;1.92;;;10.50;79.50;;;;;;5053620;28;20472;-84
2021/04/07 09:28:48;;;;;;;5.13;1.13;;;10.60;79.20;;;;;;5053387;28;20021;-84
2021/04/07 09:31:19;;;;;;;5.10;1.75;;;10.80;78.40;;;;;;5054519;28;20028;-83
2021/04/07 09:33:50;;;;;;;4.65;1.65;;;10.90;77.70;;;;;;5053875;28;20033;-85
2021/04/07 09:36:26;;;;;;;9.32;1.98;;;11.00;77.10;;;;;;5054263;28;20077;-86
2021/04/07 09:38:53;;;;;;;10.48;3.03;;;11.10;77.20;;;;;;5052993;28;20448;-84
2021/04/07 09:41:30;;;;;;;13.55;3.15;;;11.20;76.90;;;;;;5053564;28;20017;-84
2021/04/07 09:43:57;;;;;;;10.82;3.35;;;11.40;76.30;;;;;;5052602;28;20029;-84
2021/04/07 09:46:23;;;;;;;9.40;3.78;;;11.50;75.90;;;;;;5036070;28;20040;-83
2021/04/07 09:48:57;;;;;;;12.00;4.90;;;11.70;75.80;;;;;;5048477;28;20032;-86
2021/04/07 09:51:38;;;;;;;8.40;1.95;;;12.00;74.90;;;;;;5049024;28;20106;-85
2021/04/07 09:54:21;;;;;;;8.85;1.42;;;12.10;73.90;;;;;;5048720;28;20025;-86
2021/04/07 09:57:03;;;;;;;11.20;2.25;;;12.20;73.00;;;;;;5048751;28;20017;-84
2021/04/07 09:59:36;;;;;;;5.93;1.30;;;12.20;72.50;;;;;;5050009;28;20029;-86
2021/04/07 10:02:03;;;;;;;13.38;3.33;;;12.30;72.30;;;;;;5050561;28;20021;-84
2021/04/07 10:04:38;;;;;;;8.40;1.70;;;12.60;72.40;;;;;;5049119;28;20020;-88
2021/04/07 10:07:13;;;;;;;18.48;2.03;;;13.00;71.90;;;;;;5050330;28;20059;-86
2021/04/07 10:09:41;;;;;;;8.80;2.78;;;13.40;71.20;;;;;;5048743;28;20067;-86
2021/04/07 10:12:08;;;;;;;7.05;1.27;;;13.90;70.10;;;;;;5048603;28;20028;-84
2021/04/07 10:14:34;;;;;;;6.70;1.20;;;14.40;69.30;;;;;;5032085;28;20048;-87
2021/04/07 10:17:31;;;;;;;4.38;1.10;;;15.00;68.00;;;;;;5048669;28;20029;-86
2021/04/07 10:20:05;;;;;;;5.88;2.55;;;15.40;66.60;;;;;;5048777;28;20033;-84
2021/04/07 10:22:32;;;;;;;11.15;1.70;;;16.10;67.40;;;;;;5048588;28;20087;-83
2021/04/07 10:25:17;;;;;;;14.25;3.28;;;16.90;66.40;;;;;;5048638;28;20029;-83
2021/04/07 10:27:44;;;;;;;6.50;2.08;;;17.40;64.10;;;;;;5048146;28;20487;-86
2021/04/07 10:30:13;;;;;;;6.53;1.58;;;17.60;62.00;;;;;;5048579;28;20494;-86
2021/04/07 10:32:42;;;;;;;6.17;1.47;;;17.70;60.60;;;;;;5048280;28;20183;-87
2021/04/07 10:35:09;;;;;;;9.90;1.85;;;17.70;59.50;;;;;;5047996;28;20025;-83
2021/04/07 10:37:36;;;;;;;8.10;1.50;;;17.60;58.70;;;;;;5031660;28;20025;-84
2021/04/07 10:40:04;;;;;;;9.43;1.77;;;17.40;57.70;;;;;;5048272;28;20056;-85
2021/04/07 10:42:31;;;;;;;6.78;0.90;;;17.20;57.30;;;;;;5049494;28;20064;-85
2021/04/07 10:45:02;;;;;;;9.88;2.30;;;16.90;56.70;;;;;;5050027;28;20082;-84
2021/04/07 10:47:35;;;;;;;15.38;2.00;;;16.70;56.90;;;;;;5048106;28;20021;-83
2021/04/07 10:50:00;;;;;;;5.10;1.40;;;16.70;57.10;;;;;;5048162;28;20033;-87
2021/04/07 10:53:02;;;;;;;6.10;1.17;;;17.60;59.20;;;;;;5049748;28;20044;-87
2021/04/07 10:55:29;;;;;;;10.63;1.77;;;19.40;58.90;;;;;;5030009;28;20029;-87
2021/04/07 10:57:58;;;;;;;10.40;1.20;;;20.50;56.80;;;;;;5027427;28;20037;-86
2021/04/07 11:00:31;;;;;;;7.82;1.65;;;21.10;54.40;;;;;;5046838;28;20021;-87
2021/04/07 11:02:58;;;;;;;6.13;1.60;;;21.10;51.40;;;;;;5047521;28;20084;-83
2021/04/07 11:05:25;;;;;;;5.18;1.42;;;20.40;50.40;;;;;;5048033;28;20032;-85
2021/04/07 11:08:03;;;;;;;7.78;1.65;;;19.60;49.80;;;;;;5049546;28;20135;-85
2021/04/07 11:10:37;;;;;;;15.20;1.80;;;18.50;49.20;;;;;;5048280;28;20043;-85
2021/04/07 11:13:03;;;;;;;6.75;1.45;;;17.40;49.50;;;;;;5032540;28;20036;-84
2021/04/07 11:15:29;;;;;;;11.70;2.33;;;16.50;50.60;;;;;;5048466;28;20114;-84
2021/04/07 11:17:55;;;;;;;11.07;2.08;;;15.80;51.20;;;;;;5031960;28;20062;-85
2021/04/07 11:20:22;;;;;;;9.20;1.42;;;15.20;51.70;;;;;;5048385;28;20029;-86
2021/04/07 11:22:48;;;;;;;6.40;0.88;;;14.90;52.80;;;;;;5049397;28;20017;-85
2021/04/07 11:25:14;;;;;;;5.72;1.30;;;14.80;53.20;;;;;;5048255;28;20352;-88
2021/04/07 11:27:41;;;;;;;3.70;1.60;;;15.30;55.20;;;;;;5031926;28;20484;-85
2021/04/07 11:30:08;;;;;;;4.75;1.10;;;16.50;55.90;;;;;;5049624;28;20040;-82
2021/04/07 11:32:40;;;;;;;6.75;1.42;;;17.70;55.30;;;;;;5030892;28;20077;-85
2021/04/07 11:40:06;;;;;;;8.63;1.42;;;18.30;50.10;;;;;;5046822;28;20035;-83
2021/04/07 11:42:45;;;;;;;6.28;1.55;;;17.70;49.90;;;;;;5047481;28;20028;-86
2021/04/07 11:45:13;;;;;;;11.70;5.03;;;17.20;49.90;;;;;;5020010;28;20510;-84
2021/04/07 11:47:39;;;;;;;4.32;1.52;;;16.80;50.90;;;;;;5048002;28;20128;-84
2021/04/07 11:50:06;;;;;;;7.60;1.55;;;16.90;51.70;;;;;;5032004;28;20064;-81
2021/04/07 11:52:32;;;;;;;4.30;1.27;;;17.20;51.40;;;;;;5049483;28;20043;-84
2021/04/07 11:54:58;;;;;;;9.15;1.60;;;17.30;51.30;;;;;;5048420;28;20508;-85
2021/04/07 11:57:24;;;;;;;4.75;1.55;;;17.30;50.90;;;;;;5047247;28;20403;-85
2021/04/07 11:59:54;;;;;;;5.65;1.60;;;17.00;50.50;;;;;;5048559;28;20090;-85
2021/04/07 12:02:20;;;;;;;4.93;1.50;;;16.50;50.50;;;;;;5030507;28;20055;-87
2021/04/07 12:04:47;;;;;;;6.47;1.27;;;16.10;50.70;;;;;;5014231;28;20146;-85
2021/04/07 12:07:14;;;;;;;8.52;1.30;;;15.70;51.00;;;;;;5030792;28;20043;-85
2021/04/07 12:09:40;;;;;;;4.50;1.38;;;15.30;51.20;;;;;;5046817;28;20029;-86
2021/04/07 12:12:06;;;;;;;7.22;1.40;;;15.00;51.60;;;;;;5047092;28;20479;-86
2021/04/07 12:14:32;;;;;;;2.22;0.90;;;14.70;52.00;;;;;;5030304;28;20029;-86
2021/04/07 12:16:57;;;;;;;5.22;1.05;;;14.40;52.00;;;;;;5047159;28;20021;-87
2021/04/07 12:19:23;;;;;;;8.95;1.40;;;14.10;52.30;;;;;;5046565;28;20496;-85
2021/04/07 12:21:49;;;;;;;6.90;1.20;;;13.80;52.70;;;;;;5046811;28;20057;-88
2021/04/07 12:24:15;;;;;;;4.65;1.75;;;13.50;53.10;;;;;;5029618;28;20033;-87
2021/04/07 12:26:41;;;;;;;6.78;1.60;;;13.40;53.60;;;;;;5029693;28;20101;-84
2021/04/07 12:29:07;;;;;;;7.47;2.00;;;13.30;54.00;;;;;;5029891;28;20058;-84
2021/04/07 12:31:32;;;;;;;7.13;0.90;;;13.30;54.10;;;;;;5045675;28;20147;-83
2021/04/07 12:33:59;;;;;;;2.80;1.10;;;13.40;54.30;;;;;;5013123;28;20029;-85
2021/04/07 12:36:27;;;;;;;4.63;1.10;;;13.40;54.80;;;;;;5047263;28;20028;-85
2021/04/07 12:38:55;;;;;;;5.40;1.40;;;13.50;54.90;;;;;;5046051;28;20029;-86
2021/04/07 12:41:36;;;;;;;4.65;1.00;;;13.60;54.80;;;;;;5046104;28;20052;-85
2021/04/07 12:44:02;;;;;;;4.97;1.00;;;13.70;55.00;;;;;;5031551;28;20033;-85
2021/04/07 12:46:27;;;;;;;5.40;1.42;;;13.80;55.10;;;;;;5047846;28;20029;-86
2021/04/07 12:48:53;;;;;;;6.88;1.10;;;13.90;55.00;;;;;;5045923;28;20336;-84
2021/04/07 12:51:21;;;;;;;3.63;1.20;;;14.10;55.00;;;;;;5029068;28;20487;-86
2021/04/07 12:53:48;;;;;;;6.68;1.27;;;14.30;54.90;;;;;;5028709;28;20119;-85
2021/04/07 12:56:16;;;;;;;7.70;2.20;;;14.40;54.90;;;;;;5047075;28;20025;-85
2021/04/07 12:58:45;;;;;;;7.80;1.45;;;14.60;55.00;;;;;;5048161;28;20040;-84
2021/04/07 13:01:11;;;;;;;5.28;1.63;;;14.70;54.80;;;;;;5048810;28;20519;-86
2021/04/07 13:03:37;;;;;;;10.13;2.03;;;14.60;54.50;;;;;;5047159;28;20446;-85